Columbus, Ohio
Traffic Map
Current Weather Conditions
Columbus, Ohio
Overcast
Overcast
70°
Feels Like: 70°
Wind Chill: 70° Ceiling: 20000
Heat Index: 70° Visibility: 10mi
Dew Point: 63° Wind: 0mph
Humidity: 78% Direction: ° ()
Pressure: 30.08in Gusts: 0mph
Raw Report DataKCMH 060251Z 00000KT 10SM FEW050 SCT140 OVC200 21/17 A3008 RMK AO2 SLP180 T02110172 53005
Traffic Incident Summary
Active as of:
Severity:
Category:
InformationThere was an issue retrieving the traffic information for this location. Please try a different location or try again shortly.
Advertisements
Track Severe Weather on mobile